Eastern Sierra Regional Airport Bishop US
ICAO: KBIH
IATA: BIH
Category: Medium
Scheduled Services: No

Elevation: 4124 ft
TransAlt. 18000 ft.

Airport Communications:
OAKLAND CNTR:125.75
ASOS:119.025
RIVERSIDE RDO:122.6
CTAF/UNICOM:123

KBIH Zoom In..

Runways:

(A) RW 07 length 5567 ft width 100 ft
---- / hdg 75

(B) RW 12 length 7498 ft width 100 ft
---- / hdg 120

(C) RW 16 length 5600 ft width 100 ft
---- / hdg 165

(D) RW 25 length 5567 ft width 100 ft
---- / hdg 255

(E) RW 30 length 7498 ft width 100 ft
---- / hdg 300

(F) RW 34 length 5600 ft width 100 ft
---- / hdg 345

Location; KBIH
Day. 19 / Time. 20.46 Zulu
* Altimeter: 30.03
* Temperature: 37° c. 98.6°f.
* Wind from: 170° Speed 14 kn with Gusts up to 21 kn.
Dewpoint: 08° c.
Visibility: 10 Statute Miles.
Clouds: Clear (automated report).

KBIH 192046Z AUTO 17014G21KT 10SM VCTS CLR 37/08 A3003 RMK AO2 PK WND 16026/1958 LTG DSNT ALQDS T03720078


Wind From 170°
Speed 14 kn.

 
 
jpsmedia.com for Web Design worldairports.se 2018   terms of use